Time;durP1;ratioP1;P1;durP2;ratioP2;P2;SDS_P1;SDS_P2;PMS_P1;PMS_P2;Temp;Humidity;BMP_temperature;BMP_pressure;BME280_temperature;BME280_humidity;BME280_pressure;Samples;Min_cycle;Max_cycle;Signal;HPM_P1;HPM_P2
2022/12/09 00:02:05;;;;;;;53.47;38.40;;;;;;;0.74;100.00;160765.53;5044344;28;20056;-63
2022/12/09 00:04:32;;;;;;;56.50;37.70;;;;;;;0.75;100.00;160768.22;5049015;28;20025;-63
2022/12/09 00:06:57;;;;;;;48.83;33.33;;;;;;;0.78;100.00;160776.28;5030467;28;20051;-63
2022/12/09 00:09:22;;;;;;;47.97;33.78;;;;;;;0.72;100.00;160760.13;5032326;28;20033;-63
2022/12/09 00:11:48;;;;;;;52.58;34.67;;;;;;;0.66;100.00;160745.44;5031188;28;20046;-63
2022/12/09 00:14:13;;;;;;;46.90;33.97;;;;;;;0.61;100.00;160733.34;5031847;28;20060;-63
2022/12/09 00:16:38;;;;;;;58.40;38.22;;;;;;;0.59;100.00;160726.66;5030722;28;20444;-63
2022/12/09 00:19:06;;;;;;;57.67;36.15;;;;;;;0.55;100.00;160717.28;5032118;28;20112;-63
2022/12/09 00:21:32;;;;;;;61.38;38.85;;;;;;;0.55;100.00;160717.28;5038782;28;20041;-64
2022/12/09 00:23:59;;;;;;;61.17;40.30;;;;;;;0.57;100.00;160721.28;5051811;28;20056;-64
2022/12/09 00:26:26;;;;;;;54.20;31.85;;;;;;;0.64;100.00;160740.06;5050362;28;20045;-64
2022/12/09 00:28:52;;;;;;;61.45;38.65;;;;;;;0.59;100.00;160726.66;5039782;28;20443;-64
2022/12/09 00:31:23;;;;;;;54.28;34.92;;;;;;;0.58;100.00;160725.28;5030828;28;20045;-64
2022/12/09 00:33:54;;;;;;;51.95;36.50;;;;;;;0.46;100.00;160693.13;5041178;28;20076;-64
2022/12/09 00:36:21;;;;;;;56.47;35.22;;;;;;;0.42;100.00;160682.38;5050050;28;20033;-64
2022/12/09 00:38:47;;;;;;;62.33;41.10;;;;;;;0.27;100.00;160644.84;5035857;28;20123;-64
2022/12/09 00:41:13;;;;;;;52.47;36.35;;;;;;;0.31;100.00;160655.59;5030251;28;20041;-63
2022/12/09 00:43:39;;;;;;;57.25;36.47;;;;;;;0.31;100.00;160655.59;5031171;28;20025;-63
2022/12/09 00:46:04;;;;;;;55.13;38.17;;;;;;;0.26;100.00;160642.16;5030031;28;20114;-63
2022/12/09 00:48:33;;;;;;;55.67;36.83;;;;;;;0.14;100.00;160610.00;5031742;28;20025;-63
2022/12/09 00:50:59;;;;;;;55.53;33.63;;;;;;;0.14;100.00;160611.38;5029991;28;20049;-65
2022/12/09 00:53:24;;;;;;;57.05;37.58;;;;;;;0.13;100.00;160607.34;5031617;28;20037;-66
2022/12/09 00:55:49;;;;;;;61.85;37.25;;;;;;;0.13;100.00;160608.69;5030042;28;20089;-66
2022/12/09 00:58:15;;;;;;;57.58;32.60;;;;;;;0.14;100.00;160611.38;5031251;28;20087;-65
2022/12/09 01:00:40;;;;;;;55.97;33.92;;;;;;;0.10;100.00;160600.63;5030300;28;20021;-65
2022/12/09 01:03:05;;;;;;;64.57;36.35;;;;;;;0.15;100.00;160612.72;5030963;28;20559;-65
2022/12/09 01:05:33;;;;;;;62.60;36.33;;;;;;;0.20;100.00;160626.09;5031393;28;20056;-65
2022/12/09 01:07:59;;;;;;;59.28;36.30;;;;;;;0.25;100.00;160639.53;5029912;28;20076;-65
2022/12/09 01:10:24;;;;;;;57.10;36.42;;;;;;;0.26;100.00;160642.16;5031654;28;20380;-65
2022/12/09 01:12:49;;;;;;;63.40;35.92;;;;;;;0.24;100.00;160636.84;5029712;28;20037;-65
2022/12/09 01:15:15;;;;;;;59.28;32.85;;;;;;;0.20;100.00;160626.09;5031693;28;20040;-62
2022/12/09 01:17:40;;;;;;;57.83;36.13;;;;;;;0.14;100.00;160610.00;5044641;28;20045;-63
2022/12/09 01:20:08;;;;;;;59.17;35.30;;;;;;;0.10;100.00;160599.31;5030985;28;20018;-63
2022/12/09 01:22:34;;;;;;;49.95;33.97;;;;;;;0.03;100.00;160580.56;5029980;28;20527;-63
2022/12/09 01:25:00;;;;;;;59.60;35.90;;;;;;;-0.07;100.00;160556.44;5031019;28;20028;-63
2022/12/09 01:27:28;;;;;;;54.15;33.83;;;;;;;-0.12;100.00;160543.03;5037147;28;20049;-63
2022/12/09 01:29:53;;;;;;;51.75;31.67;;;;;;;-0.22;100.00;160517.53;5048070;28;20087;-63
2022/12/09 01:32:18;;;;;;;56.15;35.80;;;;;;;-0.32;100.00;160490.78;5049694;28;20041;-63
2022/12/09 01:34:44;;;;;;;55.08;34.28;;;;;;;-0.40;100.00;160470.66;5031778;28;20030;-63
2022/12/09 01:37:09;;;;;;;56.92;32.58;;;;;;;-0.46;100.00;160454.59;5029684;28;20055;-62
2022/12/09 01:39:34;;;;;;;52.45;32.55;;;;;;;-0.54;100.00;160434.50;5031181;28;20017;-62
2022/12/09 01:42:02;;;;;;;61.42;32.92;;;;;;;-0.63;100.00;160409.06;5029141;28;20496;-62
2022/12/09 01:44:30;;;;;;;56.67;31.60;;;;;;;-0.71;100.00;160390.28;5031257;28;20049;-62
2022/12/09 01:46:58;;;;;;;59.42;34.72;;;;;;;-0.73;100.00;160384.94;5029806;28;20556;-62
2022/12/09 01:49:33;;;;;;;54.85;33.47;;;;;;;-0.79;100.00;160368.88;5050841;28;20104;-63
2022/12/09 01:52:09;;;;;;;56.45;32.50;;;;;;;-0.84;100.00;160355.47;5043642;28;20463;-63
2022/12/09 01:54:35;;;;;;;49.17;31.02;;;;;;;-0.90;100.00;160339.41;5043801;28;20508;-63
2022/12/09 01:57:01;;;;;;;46.55;29.25;;;;;;;-0.98;100.00;160319.34;5038270;28;20043;-62
2022/12/09 01:59:27;;;;;;;60.55;34.63;;;;;;;-1.01;100.00;160312.66;5031161;28;20029;-63
2022/12/09 02:01:57;;;;;;;60.30;34.55;;;;;;;-1.01;100.00;160312.66;5039040;28;20045;-63
2022/12/09 02:04:23;;;;;;;66.80;34.50;;;;;;;-1.00;100.00;160315.28;5048223;28;20017;-63
2022/12/09 02:06:48;;;;;;;63.78;35.83;;;;;;;-0.94;100.00;160328.72;5029321;28;20045;-63
2022/12/09 02:09:14;;;;;;;63.00;37.35;;;;;;;-0.86;100.00;160350.16;5030916;28;20025;-63
2022/12/09 02:11:57;;;;;;;63.75;37.65;;;;;;;-0.79;100.00;160368.88;5029226;28;20407;-63
2022/12/09 02:14:39;;;;;;;74.38;40.38;;;;;;;-0.72;100.00;160387.63;5030493;28;20110;-63
2022/12/09 02:17:34;;;;;;;70.57;39.67;;;;;;;-0.66;100.00;160403.69;5042192;28;20060;-63
2022/12/09 02:20:14;;;;;;;77.93;43.55;;;;;;;-0.55;100.00;160430.47;5031398;28;20021;-63
2022/12/09 02:22:43;;;;;;;59.72;34.13;;;;;;;-0.48;100.00;160449.22;5029211;28;20058;-64
2022/12/09 02:25:14;;;;;;;74.22;39.08;;;;;;;-0.42;100.00;160465.34;5030393;28;20112;-64
2022/12/09 02:27:49;;;;;;;66.25;41.63;;;;;;;-0.36;100.00;160480.03;5030022;28;20523;-64
2022/12/09 02:30:20;;;;;;;70.68;36.05;;;;;;;-0.30;100.00;160496.16;5042417;28;20029;-63
2022/12/09 02:33:09;;;;;;;76.15;42.75;;;;;;;-0.25;100.00;160508.16;5049125;28;20041;-63
2022/12/09 02:35:42;;;;;;;63.55;35.55;;;;;;;-0.21;100.00;160518.91;5032005;28;20034;-63
2022/12/09 02:38:15;;;;;;;65.53;38.15;;;;;;;-0.18;100.00;160526.91;5030102;28;20041;-63
2022/12/09 02:40:57;;;;;;;70.13;38.58;;;;;;;-0.15;100.00;160534.97;5028954;28;20071;-63
2022/12/09 02:43:27;;;;;;;70.50;41.03;;;;;;;-0.11;100.00;160545.69;5030416;28;20021;-63
2022/12/09 02:45:56;;;;;;;60.78;35.13;;;;;;;-0.10;100.00;160548.38;5028775;28;20501;-63
2022/12/09 02:48:24;;;;;;;;;;;;;;;-0.10;100.00;160547.03;5030856;28;20022;-63
2022/12/09 02:50:51;;;;;;;48.10;25.50;;;;;;;-0.11;100.00;160545.69;5041190;28;19920;-63
2022/12/09 02:53:17;;;;;;;57.38;36.50;;;;;;;-0.10;100.00;160548.38;5050333;28;20024;-63
2022/12/09 02:55:46;;;;;;;50.85;32.70;;;;;;;-0.06;100.00;160559.13;5046138;28;20032;-63
2022/12/09 02:58:11;;;;;;;50.67;29.92;;;;;;;-0.03;100.00;160567.13;5041456;28;20060;-63
2022/12/09 03:00:38;;;;;;;46.83;31.67;;;;;;;0.02;100.00;160577.88;5044169;28;20060;-62
2022/12/09 03:03:08;;;;;;;47.35;31.60;;;;;;;0.03;100.00;160580.56;5049774;28;20096;-65
2022/12/09 03:05:54;;;;;;;58.47;35.08;;;;;;;-0.01;100.00;160571.19;5037964;28;20053;-65
2022/12/09 03:08:23;;;;;;;52.33;31.25;;;;;;;-0.02;100.00;160569.81;5029069;28;20492;-65
2022/12/09 03:11:07;;;;;;;60.45;34.03;;;;;;;-0.01;100.00;160572.50;5043637;28;20037;-65
2022/12/09 03:14:02;;;;;;;52.10;33.63;;;;;;;0.02;100.00;160577.88;5046571;28;20025;-65
2022/12/09 03:16:38;;;;;;;60.80;36.22;;;;;;;0.04;100.00;160583.25;5028956;28;20049;-65
2022/12/09 03:19:12;;;;;;;56.10;36.55;;;;;;;0.07;100.00;160592.63;5030079;28;20087;-65
2022/12/09 03:21:42;;;;;;;57.42;35.10;;;;;;;0.07;100.00;160592.63;5031899;28;20049;-65
2022/12/09 03:24:11;;;;;;;64.65;38.60;;;;;;;0.14;100.00;160610.00;5041327;28;20509;-65
2022/12/09 03:26:37;;;;;;;72.55;40.70;;;;;;;0.18;100.00;160620.78;5049650;28;20055;-65
2022/12/09 03:29:07;;;;;;;76.95;43.78;;;;;;;0.26;100.00;160642.16;5052844;28;20484;-65
2022/12/09 03:31:35;;;;;;;68.25;41.30;;;;;;;0.32;100.00;160656.94;5042861;28;20041;-65
2022/12/09 03:34:05;;;;;;;58.22;34.58;;;;;;;0.33;100.00;160658.28;5053020;28;20503;-65
2022/12/09 03:36:37;;;;;;;68.95;38.78;;;;;;;0.36;100.00;160667.69;5052452;28;20037;-65
2022/12/09 03:39:08;;;;;;;63.58;38.90;;;;;;;0.40;100.00;160677.06;5039151;28;20082;-63
2022/12/09 03:41:37;;;;;;;72.93;41.33;;;;;;;0.47;100.00;160695.81;5012163;28;20065;-63
2022/12/09 03:44:10;;;;;;;66.90;40.13;;;;;;;0.50;100.00;160703.84;5013314;28;20062;-64
2022/12/09 03:46:35;;;;;;;66.80;38.85;;;;;;;0.47;100.00;160695.81;5012379;28;20042;-62
2022/12/09 03:49:01;;;;;;;81.78;43.55;;;;;;;0.44;100.00;160687.75;5013576;28;20033;-62
2022/12/09 03:51:41;;;;;;;64.50;43.42;;;;;;;0.47;100.00;160695.81;5032200;28;20053;-62
2022/12/09 03:54:27;;;;;;;74.97;44.22;;;;;;;0.47;100.00;160695.81;5033449;28;20386;-62
2022/12/09 03:56:56;;;;;;;73.45;41.78;;;;;;;0.51;100.00;160706.53;5040362;28;20037;-62
2022/12/09 03:59:27;;;;;;;73.95;42.25;;;;;;;-146.58;100.00;69501.63;5052566;28;20154;-62
2022/12/09 04:01:53;;;;;;;74.00;39.55;;;;;;;-146.58;100.00;69501.63;5050031;28;20518;-62
2022/12/09 04:04:18;;;;;;;76.63;46.22;;;;;;;0.57;100.00;160722.59;5052980;28;20033;-62
2022/12/09 04:06:52;;;;;;;75.20;43.95;;;;;;;0.56;100.00;160719.91;5044411;28;20411;-62
2022/12/09 04:09:17;;;;;;;84.13;44.80;;;;;;;0.64;100.00;160740.06;5032727;28;20029;-63
2022/12/09 04:11:43;;;;;;;77.60;50.05;;;;;;;0.64;100.00;160740.06;5031616;28;20042;-62
2022/12/09 04:14:08;;;;;;;82.55;47.35;;;;;;;0.62;100.00;160736.06;5033017;28;20028;-62
2022/12/09 04:16:33;;;;;;;70.40;42.15;;;;;;;0.59;100.00;160727.97;5031619;28;20381;-61
2022/12/09 04:18:59;;;;;;;73.72;41.75;;;;;;;0.60;100.00;160729.31;5035849;28;20083;-61
2022/12/09 04:21:24;;;;;;;73.53;42.92;;;;;;;0.59;100.00;160727.97;5031569;28;20044;-63
2022/12/09 04:23:50;;;;;;;77.55;45.47;;;;;;;0.62;100.00;160734.69;5032730;28;20033;-63
2022/12/09 04:26:20;;;;;;;86.13;47.70;;;;;;;0.59;100.00;160727.97;5039163;28;20048;-63
2022/12/09 04:28:46;;;;;;;81.65;48.08;;;;;;;0.62;100.00;160734.69;5032615;28;20031;-63
2022/12/09 04:31:13;;;;;;;106.15;48.80;;;;;;;0.59;100.00;160727.97;5030998;28;20407;-63
2022/12/09 04:33:39;;;;;;;86.05;51.80;;;;;;;0.58;100.00;160725.28;5032464;28;20026;-63
2022/12/09 04:36:07;;;;;;;102.00;48.42;;;;;;;0.59;100.00;160727.97;5030920;28;20500;-63
2022/12/09 04:38:33;;;;;;;86.53;51.45;;;;;;;0.63;100.00;160738.69;5031390;28;20026;-63
2022/12/09 04:40:59;;;;;;;87.18;51.05;;;;;;;0.64;100.00;160740.06;5030306;28;20045;-63
2022/12/09 04:43:24;;;;;;;85.63;49.80;;;;;;;0.66;100.00;160744.06;5032596;28;20041;-62
2022/12/09 04:45:50;;;;;;;93.45;48.58;;;;;;;0.66;100.00;160745.44;5030697;28;20029;-63
2022/12/09 04:48:15;;;;;;;95.50;53.42;;;;;;;0.66;100.00;160744.06;5031894;28;20461;-63
2022/12/09 04:50:40;;;;;;;102.00;52.92;;;;;;;0.63;100.00;160738.69;5031133;28;20048;-62
2022/12/09 04:53:06;;;;;;;87.93;48.67;;;;;;;0.59;100.00;160726.66;5035650;28;20020;-63
2022/12/09 04:55:31;;;;;;;97.43;51.17;;;;;;;0.50;100.00;160703.84;5051845;28;20332;-62
2022/12/09 04:57:56;;;;;;;114.93;55.83;;;;;;;0.42;100.00;160682.38;5050207;28;20041;-62
2022/12/09 05:00:22;;;;;;;86.85;49.92;;;;;;;0.35;100.00;160663.63;5046426;28;20028;-62
2022/12/09 05:02:47;;;;;;;105.55;58.92;;;;;;;0.35;100.00;160663.63;5049401;28;20033;-62
2022/12/09 05:05:12;;;;;;;87.60;53.70;;;;;;;0.31;100.00;160655.59;5032279;28;20040;-62
2022/12/09 05:07:38;;;;;;;95.85;56.47;;;;;;;0.30;100.00;160652.91;5034465;28;20110;-62
2022/12/09 05:10:04;;;;;;;86.50;51.00;;;;;;;0.18;100.00;160620.78;5032286;28;20110;-62
2022/12/09 05:12:31;;;;;;;103.05;53.78;;;;;;;0.09;100.00;160596.63;5040071;28;20036;-62
2022/12/09 05:14:57;;;;;;;109.25;53.90;;;;;;;0.01;100.00;160575.19;5040100;28;20021;-62
2022/12/09 05:17:23;;;;;;;100.07;56.53;;;;;;;0.04;100.00;160584.56;5030823;28;20041;-64
2022/12/09 05:19:49;;;;;;;112.15;55.65;;;;;;;-0.05;100.00;160561.81;5035815;28;20017;-64
2022/12/09 05:22:16;;;;;;;85.90;50.10;;;;;;;-0.07;100.00;160556.44;5030149;28;20045;-64
2022/12/09 05:24:43;;;;;;;95.13;50.88;;;;;;;-0.17;100.00;160529.59;5031357;28;20017;-64
2022/12/09 05:27:08;;;;;;;102.18;57.33;;;;;;;-0.22;100.00;160516.22;5034092;28;20060;-64
2022/12/09 05:29:34;;;;;;;113.68;53.75;;;;;;;-0.29;100.00;160497.47;5047960;28;20025;-64
2022/12/09 05:31:59;;;;;;;106.22;57.85;;;;;;;-0.35;100.00;160484.09;5047161;28;20094;-64
2022/12/09 05:34:24;;;;;;;98.95;50.08;;;;;;;-0.43;100.00;160461.28;5031682;28;20021;-64
2022/12/09 05:36:50;;;;;;;104.13;51.88;;;;;;;-0.54;100.00;160433.16;5029659;28;20033;-63
2022/12/09 05:39:16;;;;;;;105.97;52.80;;;;;;;-0.66;100.00;160402.34;5031320;28;20029;-61
2022/12/09 05:41:42;;;;;;;108.93;56.35;;;;;;;-0.77;100.00;160372.88;5038632;28;20099;-62
2022/12/09 05:44:10;;;;;;;105.97;53.67;;;;;;;-0.83;100.00;160359.50;5045541;28;20053;-61
2022/12/09 05:46:35;;;;;;;96.82;51.65;;;;;;;-0.90;100.00;160339.41;5049370;28;20098;-61
2022/12/09 05:49:00;;;;;;;108.38;53.85;;;;;;;-1.00;100.00;160315.28;5050811;28;20458;-62
2022/12/09 05:51:28;;;;;;;83.72;49.88;;;;;;;-1.06;100.00;160297.91;5044294;28;20037;-61
2022/12/09 05:53:54;;;;;;;104.70;55.38;;;;;;;-1.17;100.00;160269.78;5050546;28;20083;-62
2022/12/09 05:56:22;;;;;;;100.95;51.33;;;;;;;-1.25;100.00;160248.38;5049463;28;20041;-62
2022/12/09 05:58:47;;;;;;;121.45;54.75;;;;;;;-1.32;100.00;160230.94;5051169;28;20430;-62
2022/12/09 06:01:13;;;;;;;102.60;48.80;;;;;;;-1.37;100.00;160218.88;5049109;28;20052;-62
2022/12/09 06:03:39;;;;;;;134.32;54.78;;;;;;;-1.46;100.00;160194.81;5050953;28;20052;-63
2022/12/09 06:06:09;;;;;;;102.80;50.17;;;;;;;-1.54;100.00;160173.41;5048929;28;20514;-63
2022/12/09 06:08:35;;;;;;;110.32;54.28;;;;;;;-1.58;100.00;160162.66;5050573;28;20029;-63
2022/12/09 06:11:01;;;;;;;114.13;52.28;;;;;;;-1.66;100.00;160143.94;5049095;28;20384;-63
2022/12/09 06:13:27;;;;;;;123.80;56.58;;;;;;;-1.66;100.00;160143.94;5050865;28;20024;-63
2022/12/09 06:15:52;;;;;;;117.18;54.33;;;;;;;-1.63;100.00;160151.97;5048699;28;20021;-63
2022/12/09 06:18:18;;;;;;;122.70;54.35;;;;;;;-1.61;100.00;160157.34;5050706;28;20066;-60
2022/12/09 06:20:43;;;;;;;116.28;51.45;;;;;;;-1.61;100.00;160157.34;5049173;28;20025;-59
2022/12/09 06:23:08;;;;;;;123.95;54.35;;;;;;;-1.60;100.00;160159.97;5050170;28;20048;-59
2022/12/09 06:25:34;;;;;;;111.20;55.38;;;;;;;-1.62;100.00;160154.66;5050583;28;20443;-59
2022/12/09 06:27:59;;;;;;;110.57;51.67;;;;;;;-1.55;100.00;160170.72;5048762;28;20048;-59
2022/12/09 06:30:25;;;;;;;106.07;53.25;;;;;;;-1.47;100.00;160192.13;5050383;28;20029;-59
2022/12/09 06:32:50;;;;;;;132.75;56.47;;;;;;;-1.45;100.00;160197.47;5048851;28;20091;-59
2022/12/09 06:35:17;;;;;;;124.95;50.92;;;;;;;-1.49;100.00;160186.78;5050626;28;20028;-59
2022/12/09 06:37:42;;;;;;;106.80;49.22;;;;;;;-1.45;100.00;160197.47;5048726;28;20041;-59
2022/12/09 06:40:08;;;;;;;104.47;52.05;;;;;;;-1.45;100.00;160197.47;5032258;28;20622;-59
2022/12/09 06:42:34;;;;;;;127.03;52.97;;;;;;;-1.47;100.00;160192.13;5048947;28;20094;-59
2022/12/09 06:44:59;;;;;;;104.80;47.15;;;;;;;-1.49;100.00;160188.09;5049727;28;20095;-59
2022/12/09 06:47:24;;;;;;;111.03;49.15;;;;;;;-1.51;100.00;160181.41;5048830;28;20083;-59
2022/12/09 06:49:49;;;;;;;105.30;50.65;;;;;;;-1.51;100.00;160182.78;5050331;28;20037;-59
2022/12/09 06:52:15;;;;;;;112.72;50.97;;;;;;;-1.52;100.00;160178.72;5048209;28;20037;-59
2022/12/09 06:54:40;;;;;;;113.55;51.13;;;;;;;-1.49;100.00;160186.78;5050491;28;20032;-59
2022/12/09 06:57:05;;;;;;;110.00;48.65;;;;;;;-1.53;100.00;160177.41;5048557;28;20522;-59
2022/12/09 06:59:32;;;;;;;108.38;53.00;;;;;;;-1.51;100.00;160181.41;5050292;28;20056;-59
2022/12/09 07:01:57;;;;;;;103.50;47.00;;;;;;;-1.52;100.00;160180.09;5050574;28;20033;-59
2022/12/09 07:04:23;;;;;;;111.90;50.47;;;;;;;-1.52;100.00;160178.72;5054166;28;20067;-59
2022/12/09 07:06:48;;;;;;;112.63;50.38;;;;;;;-1.50;100.00;160184.09;5052305;28;20052;-59
2022/12/09 07:09:16;;;;;;;116.25;50.10;;;;;;;-1.48;100.00;160189.47;5052259;28;20021;-59
2022/12/09 07:11:44;;;;;;;104.97;50.47;;;;;;;-1.48;100.00;160189.47;5052602;28;20037;-59
2022/12/09 07:14:10;;;;;;;107.45;47.60;;;;;;;-1.50;100.00;160184.09;5053904;28;20076;-59
2022/12/09 07:16:36;;;;;;;123.22;58.28;;;;;;;-1.61;100.00;160157.34;5052015;28;20037;-59
2022/12/09 07:19:02;;;;;;;108.20;46.22;;;;;;;-1.48;100.00;160189.47;5053016;28;20036;-59
2022/12/09 07:21:28;;;;;;;99.97;46.40;;;;;;;-1.55;100.00;160170.72;5051754;28;20041;-59
2022/12/09 07:23:54;;;;;;;103.47;47.60;;;;;;;-1.57;100.00;160165.34;5053022;28;20029;-59
2022/12/09 07:26:20;;;;;;;97.72;44.88;;;;;;;-1.61;100.00;160157.34;5052420;28;20439;-59
2022/12/09 07:28:46;;;;;;;89.15;42.88;;;;;;;-1.63;100.00;160151.97;5053898;28;20025;-59
2022/12/09 07:31:17;;;;;;;96.97;44.25;;;;;;;-1.61;100.00;160157.34;5051681;28;20064;-59
2022/12/09 07:33:43;;;;;;;108.65;51.35;;;;;;;-1.58;100.00;160162.66;5045992;28;20026;-59
2022/12/09 07:36:08;;;;;;;112.28;45.38;;;;;;;-1.51;100.00;160181.41;5029590;28;20566;-59
2022/12/09 07:38:33;;;;;;;103.60;50.22;;;;;;;-1.50;100.00;160184.09;5032477;28;20041;-59
2022/12/09 07:41:06;;;;;;;92.68;44.75;;;;;;;-1.46;100.00;160194.81;5031122;28;20071;-59
2022/12/09 07:43:33;;;;;;;95.72;49.17;;;;;;;-1.44;100.00;160200.16;5033005;28;20047;-59
2022/12/09 07:45:58;;;;;;;118.32;46.50;;;;;;;-1.40;100.00;160210.88;5023038;28;20529;-59
2022/12/09 07:48:24;;;;;;;129.63;49.53;;;;;;;-1.33;100.00;160229.63;5013505;28;20037;-59
2022/12/09 07:50:49;;;;;;;105.97;52.60;;;;;;;-1.30;100.00;160237.63;5011987;28;20388;-59
2022/12/09 07:53:14;;;;;;;108.40;47.40;;;;;;;-1.16;100.00;160272.47;5027267;28;20021;-59
2022/12/09 07:55:40;;;;;;;116.78;51.08;;;;;;;-1.10;100.00;160287.16;5031868;28;20029;-58
2022/12/09 07:58:05;;;;;;;97.25;46.03;;;;;;;-1.01;100.00;160312.66;5032595;28;20471;-59
2022/12/09 08:00:31;;;;;;;95.72;43.78;;;;;;;-0.96;100.00;160326.03;5032952;28;20423;-59
2022/12/09 08:02:56;;;;;;;99.57;48.25;;;;;;;-0.92;100.00;160334.03;5031477;28;20061;-59
2022/12/09 08:05:21;;;;;;;99.35;43.30;;;;;;;-0.88;100.00;160344.78;5032853;28;20026;-59
2022/12/09 08:07:47;;;;;;;94.03;45.33;;;;;;;-0.85;100.00;160352.78;5031071;28;20072;-59
2022/12/09 08:10:12;;;;;;;91.30;45.35;;;;;;;-0.84;100.00;160355.47;5032297;28;20480;-59
2022/12/09 08:12:37;;;;;;;91.70;45.17;;;;;;;-0.92;100.00;160334.03;5040508;28;20396;-59
2022/12/09 08:15:03;;;;;;;102.05;47.88;;;;;;;-0.73;100.00;160383.59;5049121;28;20041;-61
2022/12/09 08:17:29;;;;;;;107.82;50.08;;;;;;;-0.67;100.00;160401.03;5037900;28;20401;-59
2022/12/09 08:19:55;;;;;;;103.53;50.08;;;;;;;-0.67;100.00;160399.69;5032175;28;20143;-59
2022/12/09 08:22:20;;;;;;;106.28;47.78;;;;;;;-0.54;100.00;160434.50;5028975;28;20033;-59
2022/12/09 08:24:45;;;;;;;102.78;49.70;;;;;;;-0.44;100.00;160459.97;5044927;28;20028;-59
2022/12/09 08:27:11;;;;;;;75.88;38.70;;;;;;;-0.37;100.00;160478.72;5038268;28;20051;-59
2022/12/09 08:29:36;;;;;;;91.90;46.05;;;;;;;-0.32;100.00;160492.09;5049662;28;20063;-59
2022/12/09 08:32:02;;;;;;;84.20;42.28;;;;;;;-0.32;100.00;160492.09;5040256;28;20049;-59
2022/12/09 08:34:27;;;;;;;94.15;43.83;;;;;;;-0.29;100.00;160497.47;5037922;28;20480;-60
2022/12/09 08:36:53;;;;;;;88.18;44.75;;;;;;;-0.23;100.00;160513.53;5030389;28;20069;-59
2022/12/09 08:39:18;;;;;;;102.55;48.30;;;;;;;-0.25;100.00;160509.53;5040943;28;20025;-59
2022/12/09 08:41:43;;;;;;;99.05;46.58;;;;;;;-0.15;100.00;160534.97;5048675;28;20045;-59
2022/12/09 08:44:14;;;;;;;84.03;44.10;;;;;;;-0.03;100.00;160567.13;5045144;28;20116;-59
2022/12/09 08:46:42;;;;;;;79.28;42.28;;;;;;;0.01;100.00;160576.50;5033759;28;20057;-59
2022/12/09 08:49:08;;;;;;;100.35;43.47;;;;;;;-0.02;100.00;160569.81;5037597;28;20086;-59
2022/12/09 08:51:34;;;;;;;66.55;34.90;;;;;;;0.16;100.00;160615.41;5033805;28;20040;-59
2022/12/09 08:54:00;;;;;;;77.55;44.10;;;;;;;0.12;100.00;160604.66;5035648;28;20025;-59
2022/12/09 08:56:25;;;;;;;68.10;40.53;;;;;;;0.12;100.00;160604.66;5038362;28;20034;-59
2022/12/09 08:58:52;;;;;;;83.80;43.35;;;;;;;0.15;100.00;160612.72;5030599;28;20029;-59
2022/12/09 09:01:21;;;;;;;82.57;44.58;;;;;;;0.27;100.00;160643.53;5045853;28;20503;-59
2022/12/09 09:03:47;;;;;;;64.97;37.90;;;;;;;0.33;100.00;160658.28;5051366;28;20487;-59
2022/12/09 09:06:13;;;;;;;65.28;39.38;;;;;;;0.35;100.00;160663.63;5047861;28;20045;-59
2022/12/09 09:08:39;;;;;;;62.42;38.97;;;;;;;0.35;100.00;160663.63;5051389;28;20023;-59
2022/12/09 09:11:09;;;;;;;70.03;39.05;;;;;;;0.38;100.00;160671.69;5046324;28;20041;-59
2022/12/09 09:13:36;;;;;;;68.90;41.35;;;;;;;0.38;100.00;160671.69;5030137;28;20030;-59
2022/12/09 09:16:02;;;;;;;72.75;40.45;;;;;;;0.41;100.00;160679.75;5034105;28;20041;-59
2022/12/09 09:18:27;;;;;;;69.10;44.03;;;;;;;0.41;100.00;160681.06;5051152;28;20050;-59
2022/12/09 09:20:57;;;;;;;60.33;35.58;;;;;;;0.53;100.00;160710.53;5031377;28;20029;-59
2022/12/09 09:23:23;;;;;;;67.85;40.28;;;;;;;0.47;100.00;160695.81;5031148;28;20025;-59
2022/12/09 09:25:48;;;;;;;74.85;42.45;;;;;;;0.66;100.00;160745.44;5029260;28;20025;-59
2022/12/09 09:28:14;;;;;;;62.47;37.65;;;;;;;0.71;100.00;160757.50;5048648;28;20024;-59
2022/12/09 09:30:39;;;;;;;66.10;36.58;;;;;;;0.77;100.00;160774.91;5035824;28;20522;-59
2022/12/09 09:33:04;;;;;;;64.07;38.60;;;;;;;0.73;100.00;160762.84;5030859;28;20575;-59
2022/12/09 09:35:30;;;;;;;64.13;36.78;;;;;;;0.82;100.00;160785.66;5029505;28;20032;-59
2022/12/09 09:37:55;;;;;;;73.53;42.45;;;;;;;0.84;100.00;160792.34;5043908;28;20037;-59
2022/12/09 09:40:21;;;;;;;74.85;42.42;;;;;;;0.98;100.00;160827.22;5031128;28;20029;-59
2022/12/09 09:42:49;;;;;;;70.03;40.28;;;;;;;1.13;100.00;160867.44;5031289;28;20069;-59
2022/12/09 09:45:21;;;;;;;67.82;36.63;;;;;;;1.24;100.00;160896.94;5034590;28;20041;-59
2022/12/09 09:47:55;;;;;;;61.67;38.78;;;;;;;1.32;100.00;160915.72;5047394;28;20551;-59
2022/12/09 09:50:42;;;;;;;56.25;34.55;;;;;;;1.42;100.00;160942.56;5042024;28;20021;-59
2022/12/09 09:53:25;;;;;;;36.67;24.77;;;;;;;1.46;100.00;160953.25;5027016;28;20064;-59
2022/12/09 09:56:09;;;;;;;47.80;31.05;;;;;;;1.41;100.00;160941.25;5030216;28;20025;-59
2022/12/09 09:58:42;;;;;;;52.78;33.45;;;;;;;1.40;100.00;160937.19;5049161;28;20083;-59
2022/12/09 10:01:13;;;;;;;46.40;32.65;;;;;;;1.47;100.00;160955.97;5048721;28;20037;-59
2022/12/09 10:04:07;;;;;;;45.17;29.88;;;;;;;1.55;100.00;160976.09;5036441;28;20488;-59
2022/12/09 10:06:43;;;;;;;51.05;30.17;;;;;;;1.62;100.00;160993.53;5027701;28;20465;-59
2022/12/09 10:09:18;;;;;;;49.85;30.40;;;;;;;1.60;100.00;160988.19;5030327;28;20061;-59
2022/12/09 10:11:53;;;;;;;47.00;30.83;;;;;;;1.62;100.00;160993.53;5028916;28;20076;-59
2022/12/09 10:14:27;;;;;;;45.92;30.45;;;;;;;1.64;100.00;160998.91;5011253;28;20454;-59
2022/12/09 10:17:14;;;;;;;44.67;28.70;;;;;;;1.73;100.00;161024.38;5009010;28;20030;-59
2022/12/09 10:19:47;;;;;;;46.30;30.30;;;;;;;1.74;100.00;161025.75;5021897;28;20036;-59
2022/12/09 10:22:20;;;;;;;44.92;30.48;;;;;;;1.72;100.00;161020.38;5028409;28;20084;-59
2022/12/09 10:25:06;;;;;;;52.30;30.25;;;;;;;1.80;100.00;161041.84;5030142;28;20037;-59
2022/12/09 10:27:41;;;;;;;42.38;31.05;;;;;;;1.82;100.00;161047.22;5027688;28;20041;-59
2022/12/09 10:30:12;;;;;;;49.75;32.78;;;;;;;1.94;100.00;161078.03;5034950;28;20039;-59
2022/12/09 10:32:38;;;;;;;42.67;31.02;;;;;;;1.94;100.00;161076.72;5043630;28;20047;-59
2022/12/09 10:35:14;;;;;;;48.17;30.50;;;;;;;2.04;100.00;161103.59;5033666;28;20036;-60
2022/12/09 10:37:39;;;;;;;42.47;29.73;;;;;;;2.09;100.00;161115.63;5010269;28;20049;-60
2022/12/09 10:40:11;;;;;;;47.47;28.83;;;;;;;2.12;100.00;161123.69;5041731;28;20033;-60
2022/12/09 10:45:41;;;;;;;39.60;27.55;;;;;;;2.14;100.00;161130.41;5029450;28;20061;-59
2022/12/09 10:48:18;;;;;;;40.80;25.15;;;;;;;2.12;100.00;161123.69;5051097;28;20045;-60
2022/12/09 10:50:43;;;;;;;39.35;26.90;;;;;;;2.15;100.00;161131.78;5047761;28;20053;-59
2022/12/09 10:53:15;;;;;;;43.78;28.65;;;;;;;2.24;100.00;161154.56;5033562;28;20064;-59
2022/12/09 10:55:47;;;;;;;37.30;25.75;;;;;;;2.18;100.00;161141.16;5037178;28;20021;-59
2022/12/09 10:58:25;;;;;;;38.63;27.02;;;;;;;2.24;100.00;161154.56;5013372;28;20022;-60
2022/12/09 11:01:09;;;;;;;39.70;28.13;;;;;;;2.31;100.00;161173.34;5012525;28;20033;-59
2022/12/09 11:03:48;;;;;;;44.28;27.23;;;;;;;2.35;100.00;161184.06;5038652;28;20024;-60
2022/12/09 11:06:25;;;;;;;43.70;30.92;;;;;;;2.34;100.00;161181.44;5042684;28;20361;-60
2022/12/09 11:08:56;;;;;;;38.50;28.95;;;;;;;2.36;100.00;161186.75;5039448;28;20048;-60
2022/12/09 11:11:45;;;;;;;44.63;30.02;;;;;;;2.33;100.00;161178.75;5044904;28;20037;-60
2022/12/09 11:14:37;;;;;;;42.25;29.23;;;;;;;2.29;100.00;161167.97;5050735;28;20098;-60